Hanjin Ottawa — DANM — position and weather

sailwx.info

Track history (hours):
 
Tides and Currents Weather Stations Pressure Air Temp Water Temp Dewpoint Dewpoint Depression Visibility Wind Speed Wind Dir Waves Ship Positions

Hanjin Ottawa

Last reported at 2015-Apr-15 22:07 UTC. Time now 2015-Apr-18 15:15 UTC.
Position N 31°27' E 123°31'.

Length 278.8 m; beam 40.3 m; draft 14 m.

Type: Ship. MMSI: 211378360.

Date/timePositionNaut miles runAvg speedWind from/ knotsBaromVisibWave heightAir tempDewpointWater temp
2015-Apr-15 22:07N 31°27' E 123°31'2012.5
2015-Apr-15 20:33N 31°18' E 123°10'1312.9
2015-Apr-15 19:32N 31°10' E 122°59'1212.0
2015-Apr-15 18:33N 31°06' E 122°46'1615.8
2015-Apr-15 17:33N 31°06' E 122°27'1312.8
2015-Apr-15 16:33N 31°09' E 122°13'1414.2
2015-Apr-15 15:33N 31°15' E 121°58'1211.9
2015-Apr-15 14:33N 31°19' E 121°44'4 4.0
2015-Apr-15 13:31N 31°20' E 121°40'0 0.0
2015-Apr-15 12:33N 31°20' E 121°40'0 0.0
2015-Apr-15 11:33N 31°20' E 121°40'0 0.0
2015-Apr-15 10:30N 31°20' E 121°40'0 0.0
2015-Apr-15 09:29N 31°20' E 121°40'0 0.0
2015-Apr-15 08:32N 31°20' E 121°40'0 0.0
2015-Apr-15 07:31N 31°20' E 121°40'0 0.0
2015-Apr-15 06:31N 31°20' E 121°40'0 0.0
2015-Apr-15 05:30N 31°20' E 121°40'0 0.0
2015-Apr-15 04:31N 31°20' E 121°40'0 0.0
2015-Apr-15 03:30N 31°20' E 121°40'0 0.0
2015-Apr-15 02:30N 31°20' E 121°40'1 0.6
2015-Apr-15 01:33N 31°20' E 121°40'8 7.9
2015-Apr-15 00:33N 31°17' E 121°49'1110.6
2015-Apr-14 23:33N 31°15' E 122°01'9 8.9
2015-Apr-14 22:33N 31°11' E 122°10'1010.5
2015-Apr-14 21:34N 31°06' E 122°21'9 8.8
2015-Apr-14 20:33N 31°07' E 122°31'1110.7
2015-Apr-14 19:33N 31°03' E 122°43'1919.4
2015-Apr-14 18:33N 30°47' E 122°57'4120.5
2015-Apr-14 16:33N 30°06' E 122°59'2121.0
2015-Apr-14 15:33N 29°53' E 122°41'2020.2
2015-Apr-14 14:34N 29°45' E 122°19'1312.8
2015-Apr-14 13:34N 29°55' E 122°10'1414.2
2015-Apr-14 12:33N 29°57' E 121°54'2 1.6
2015-Apr-14 11:33N 29°56' E 121°52'0 0.0
2015-Apr-14 10:30N 29°56' E 121°52'0 0.0
2015-Apr-14 09:32N 29°56' E 121°52'0 0.0
2015-Apr-14 08:20N 29°56' E 121°52'0 0.0
2015-Apr-14 07:31N 29°56' E 121°52'0 0.0
2015-Apr-14 06:19N 29°56' E 121°52'0 0.0
2015-Apr-14 05:24N 29°56' E 121°52'0 0.0
2015-Apr-14 04:24N 29°56' E 121°52'0 0.0
2015-Apr-14 03:17N 29°56' E 121°52'0 0.0
2015-Apr-14 02:23N 29°56' E 121°52'0 0.0
2015-Apr-14 01:29N 29°56' E 121°52'0 0.0
2015-Apr-14 00:28N 29°56' E 121°52'0 0.0
2015-Apr-13 23:31N 29°56' E 121°52'0 0.0
2015-Apr-13 22:33N 29°56' E 121°52'0 0.0
2015-Apr-13 21:27N 29°56' E 121°52'0 0.0
2015-Apr-13 20:33N 29°56' E 121°52'6 6.0
2015-Apr-13 19:33N 29°58' E 121°59'1413.6
2015-Apr-13 18:33N 29°51' E 122°12'1413.5
2015-Apr-13 17:33N 29°43' E 122°25'  
2015-Apr-09 21:22N 34°59' E 129°09'  
Track history (hours):
 
Tides and Currents Weather Stations Pressure Air Temp Water Temp Dewpoint Dewpoint Depression Visibility Wind Speed Wind Dir Waves Ship Positions

Hanjin Ottawa

Last reported at 2015-Apr-15 22:07 UTC. Time now 2015-Apr-18 15:15 UTC.
Position N 31°27' E 123°31'.

Length 278.8 m; beam 40.3 m; draft 14 m.

Type: Ship. MMSI: 211378360.

Date/timePositionNaut miles runAvg speedWind from/ knotsBaromVisibWave heightAir tempDewpointWater temp
2015-Apr-15 22:07N 31°27' E 123°31'2012.5
2015-Apr-15 20:33N 31°18' E 123°10'1312.9
2015-Apr-15 19:32N 31°10' E 122°59'1212.0
2015-Apr-15 18:33N 31°06' E 122°46'1615.8
2015-Apr-15 17:33N 31°06' E 122°27'1312.8
2015-Apr-15 16:33N 31°09' E 122°13'1414.2
2015-Apr-15 15:33N 31°15' E 121°58'1211.9
2015-Apr-15 14:33N 31°19' E 121°44'4 4.0
2015-Apr-15 13:31N 31°20' E 121°40'0 0.0
2015-Apr-15 12:33N 31°20' E 121°40'0 0.0
2015-Apr-15 11:33N 31°20' E 121°40'0 0.0
2015-Apr-15 10:30N 31°20' E 121°40'0 0.0
2015-Apr-15 09:29N 31°20' E 121°40'0 0.0
2015-Apr-15 08:32N 31°20' E 121°40'0 0.0
2015-Apr-15 07:31N 31°20' E 121°40'0 0.0
2015-Apr-15 06:31N 31°20' E 121°40'0 0.0
2015-Apr-15 05:30N 31°20' E 121°40'0 0.0
2015-Apr-15 04:31N 31°20' E 121°40'0 0.0
2015-Apr-15 03:30N 31°20' E 121°40'0 0.0
2015-Apr-15 02:30N 31°20' E 121°40'1 0.6
2015-Apr-15 01:33N 31°20' E 121°40'8 7.9
2015-Apr-15 00:33N 31°17' E 121°49'1110.6
2015-Apr-14 23:33N 31°15' E 122°01'9 8.9
2015-Apr-14 22:33N 31°11' E 122°10'1010.5
2015-Apr-14 21:34N 31°06' E 122°21'9 8.8
2015-Apr-14 20:33N 31°07' E 122°31'1110.7
2015-Apr-14 19:33N 31°03' E 122°43'1919.4
2015-Apr-14 18:33N 30°47' E 122°57'4120.5
2015-Apr-14 16:33N 30°06' E 122°59'2121.0
2015-Apr-14 15:33N 29°53' E 122°41'2020.2
2015-Apr-14 14:34N 29°45' E 122°19'1312.8
2015-Apr-14 13:34N 29°55' E 122°10'1414.2
2015-Apr-14 12:33N 29°57' E 121°54'2 1.6
2015-Apr-14 11:33N 29°56' E 121°52'0 0.0
2015-Apr-14 10:30N 29°56' E 121°52'0 0.0
2015-Apr-14 09:32N 29°56' E 121°52'0 0.0
2015-Apr-14 08:20N 29°56' E 121°52'0 0.0
2015-Apr-14 07:31N 29°56' E 121°52'0 0.0
2015-Apr-14 06:19N 29°56' E 121°52'0 0.0
2015-Apr-14 05:24N 29°56' E 121°52'0 0.0
2015-Apr-14 04:24N 29°56' E 121°52'0 0.0
2015-Apr-14 03:17N 29°56' E 121°52'0 0.0
2015-Apr-14 02:23N 29°56' E 121°52'0 0.0
2015-Apr-14 01:29N 29°56' E 121°52'0 0.0
2015-Apr-14 00:28N 29°56' E 121°52'0 0.0
2015-Apr-13 23:31N 29°56' E 121°52'0 0.0
2015-Apr-13 22:33N 29°56' E 121°52'0 0.0
2015-Apr-13 21:27N 29°56' E 121°52'0 0.0
2015-Apr-13 20:33N 29°56' E 121°52'6 6.0
2015-Apr-13 19:33N 29°58' E 121°59'1413.6
2015-Apr-13 18:33N 29°51' E 122°12'1413.5
2015-Apr-13 17:33N 29°43' E 122°25'  
2015-Apr-09 21:22N 34°59' E 129°09'  

Dump ship's entire track history